Pagrindinis puslapis
METAR-TAF:

METAR-TAF

Oro uostai :

Campbeltown, Škotija

platuma: 55-26-14N, ilguma: 005-41-11W, Aukštis: 13 m

Dabartinis oras

Ataskaita buvo paskelbta 10 valandos ir 50 minutes, ne 17:50 UTC
Vėjas 17 kt iš Šiaurės Vakarų
Temperatūra 8°C
Drėgmė 81%
Slėgis 1000 hPa
Matomumas 10 km arba daugiau
nėra debesų žemiau 1500 m ir nėra kamuolinių lietaus debesų

METAR: EGEC 121750Z 32017KT CAVOK 08/05 Q1000

Laikas: 04:40 (04:40 UTC)

Prognozė

Ataskaita buvo paskelbta 17 valandos ir 37 minutes, ne 11:03 UTC
Prognozė galioja nuo 12 metu 12 UTC su 12 metu 18 UTC
Vėjas 20 kt iš Šiaurės/Šiaurės Vakarų
Matomumas 10 km arba daugiau
Išsisklaidę debesys ne aukštis 2000 ft
Tikimybė 30% :
Laikinai
nuo 12 metu 12 UTC su 12 metu 18 UTC
Matomumas: 7000 m
lietus

TAF: EGEC 121103Z 1212/1218 33020KT 9999 SCT020 PROB30 TEMPO 1212/1218 7000 SHRA

Orai ataskaitas ir orų prognozės (METAR, TAF).

turimą stotys yra geltonos ir raudonos taškus žemėlapyje.

Perkelti pele per norėdami pamatyti stoties vardą.

Tada spustelėkite, norėdami matyti oro stebėjimo ir prognozės.

Norėdami pakeisti žemėlapį: spustelėkite ant žalios mygtukų su juodo kryžiaus žemyn,; žalią mygtuką su brūkšneliu, jei norite nutolinti; arba žalių rodyklių gretimoms žemėlapius.


METAR-TAF: